sensor_id;sensor_type;location;lat;lon;timestamp;pressure;altitude;pressure_sealevel;temperature;humidity
10460;BME280;54412;51.206;6.888;2022-12-16T00:01:18;100300.47;;;-2.49;65.46
10460;BME280;54412;51.206;6.888;2022-12-16T00:03:55;100302.22;;;-2.75;65.22
10460;BME280;54412;51.206;6.888;2022-12-16T00:06:24;100292.75;;;-2.70;65.03
10460;BME280;54412;51.206;6.888;2022-12-16T00:08:51;100293.66;;;-2.95;65.97
10460;BME280;54412;51.206;6.888;2022-12-16T00:11:16;100288.50;;;-2.83;66.06
10460;BME280;54412;51.206;6.888;2022-12-16T00:13:42;100290.19;;;-2.76;65.73
10460;BME280;54412;51.206;6.888;2022-12-16T00:16:14;100297.84;;;-2.38;65.04
10460;BME280;54412;51.206;6.888;2022-12-16T00:18:40;100298.81;;;-2.74;65.49
10460;BME280;54412;51.206;6.888;2022-12-16T00:21:07;100297.09;;;-2.88;65.95
10460;BME280;54412;51.206;6.888;2022-12-16T00:23:34;100295.41;;;-2.95;66.47
10460;BME280;54412;51.206;6.888;2022-12-16T00:26:01;100295.38;;;-2.85;65.96
10460;BME280;54412;51.206;6.888;2022-12-16T00:28:27;100301.41;;;-3.02;66.21
10460;BME280;54412;51.206;6.888;2022-12-16T00:30:54;100302.25;;;-3.11;66.68
10460;BME280;54412;51.206;6.888;2022-12-16T00:33:23;100301.41;;;-2.98;66.34
10460;BME280;54412;51.206;6.888;2022-12-16T00:35:49;100298.84;;;-2.93;65.82
10460;BME280;54412;51.206;6.888;2022-12-16T00:38:16;100302.25;;;-3.02;66.22
10460;BME280;54412;51.206;6.888;2022-12-16T00:40:42;100294.44;;;-2.58;65.01
10460;BME280;54412;51.206;6.888;2022-12-16T00:43:09;100294.50;;;-2.79;65.91
10460;BME280;54412;51.206;6.888;2022-12-16T00:45:35;100300.53;;;-2.82;65.78
10460;BME280;54412;51.206;6.888;2022-12-16T00:48:01;100306.56;;;-2.81;65.89
10460;BME280;54412;51.206;6.888;2022-12-16T00:50:27;100303.97;;;-2.86;66.24
10460;BME280;54412;51.206;6.888;2022-12-16T00:52:53;100300.53;;;-2.77;66.49
10460;BME280;54412;51.206;6.888;2022-12-16T00:55:18;100309.97;;;-2.70;65.91
10460;BME280;54412;51.206;6.888;2022-12-16T00:57:45;100302.22;;;-2.75;65.80
10460;BME280;54412;51.206;6.888;2022-12-16T01:00:13;100306.56;;;-2.81;65.93
10460;BME280;54412;51.206;6.888;2022-12-16T01:02:43;100293.63;;;-2.66;64.92
10460;BME280;54412;51.206;6.888;2022-12-16T01:05:12;100303.09;;;-2.73;64.89
10460;BME280;54412;51.206;6.888;2022-12-16T01:07:37;100297.00;;;-2.48;64.57
10460;BME280;54412;51.206;6.888;2022-12-16T01:10:05;100298.81;;;-2.84;65.50
10460;BME280;54412;51.206;6.888;2022-12-16T01:12:32;100309.97;;;-2.76;65.72
10460;BME280;54412;51.206;6.888;2022-12-16T01:14:58;100315.16;;;-2.87;65.62
10460;BME280;54412;51.206;6.888;2022-12-16T01:17:25;100309.97;;;-2.82;65.61
10460;BME280;54412;51.206;6.888;2022-12-16T01:19:54;100309.97;;;-2.69;65.00
10460;BME280;54412;51.206;6.888;2022-12-16T01:22:20;100316.84;;;-2.57;64.83
10460;BME280;54412;51.206;6.888;2022-12-16T01:24:47;100310.78;;;-2.41;65.13
10460;BME280;54412;51.206;6.888;2022-12-16T01:27:14;100311.72;;;-2.75;66.04
10460;BME280;54412;51.206;6.888;2022-12-16T01:29:40;100325.47;;;-2.79;65.84
10460;BME280;54412;51.206;6.888;2022-12-16T01:32:11;100317.72;;;-2.63;65.76
10460;BME280;54412;51.206;6.888;2022-12-16T01:34:37;100325.44;;;-2.66;65.72
10460;BME280;54412;51.206;6.888;2022-12-16T01:37:03;100329.75;;;-2.68;65.68
10460;BME280;54412;51.206;6.888;2022-12-16T01:39:28;100329.78;;;-2.80;65.28
10460;BME280;54412;51.206;6.888;2022-12-16T01:41:55;100326.34;;;-2.77;64.47
10460;BME280;54412;51.206;6.888;2022-12-16T01:44:23;100332.34;;;-2.96;65.17
10460;BME280;54412;51.206;6.888;2022-12-16T01:46:57;100328.91;;;-2.92;66.02
10460;BME280;54412;51.206;6.888;2022-12-16T01:49:33;100336.63;;;-2.73;65.07
10460;BME280;54412;51.206;6.888;2022-12-16T01:52:04;100344.41;;;-2.91;64.40
10460;BME280;54412;51.206;6.888;2022-12-16T01:54:44;100346.97;;;-2.92;64.28
10460;BME280;54412;51.206;6.888;2022-12-16T01:57:22;100344.41;;;-2.88;64.22
10460;BME280;54412;51.206;6.888;2022-12-16T01:59:52;100338.38;;;-2.88;64.43
10460;BME280;54412;51.206;6.888;2022-12-16T02:02:19;100340.09;;;-2.80;64.72
10460;BME280;54412;51.206;6.888;2022-12-16T02:04:45;100336.63;;;-2.70;63.99
10460;BME280;54412;51.206;6.888;2022-12-16T02:07:29;100339.22;;;-2.67;64.01
10460;BME280;54412;51.206;6.888;2022-12-16T02:09:55;100337.41;;;-2.39;62.76
10460;BME280;54412;51.206;6.888;2022-12-16T02:12:29;100344.34;;;-2.55;62.66
10460;BME280;54412;51.206;6.888;2022-12-16T02:15:37;100340.09;;;-2.86;63.88
10460;BME280;54412;51.206;6.888;2022-12-16T02:21:45;100344.41;;;-2.92;63.23
10460;BME280;54412;51.206;6.888;2022-12-16T02:24:45;100362.47;;;-3.04;64.00
10460;BME280;54412;51.206;6.888;2022-12-16T02:35:44;100351.28;;;-3.02;64.70
10460;BME280;54412;51.206;6.888;2022-12-16T02:38:31;100354.72;;;-2.83;64.19
10460;BME280;54412;51.206;6.888;2022-12-16T02:41:06;100360.72;;;-3.04;64.41
10460;BME280;54412;51.206;6.888;2022-12-16T02:43:55;100356.44;;;-2.78;63.15
10460;BME280;54412;51.206;6.888;2022-12-16T02:46:29;100360.72;;;-2.96;63.52
10460;BME280;54412;51.206;6.888;2022-12-16T02:49:38;100353.84;;;-2.94;63.42
10460;BME280;54412;51.206;6.888;2022-12-16T02:51:59;100359.84;;;-2.71;63.02
10460;BME280;54412;51.206;6.888;2022-12-16T02:54:25;100365.06;;;-2.97;63.78
10460;BME280;54412;51.206;6.888;2022-12-16T02:57:38;100369.34;;;-2.78;63.37
10460;BME280;54412;51.206;6.888;2022-12-16T03:00:12;100367.59;;;-3.21;64.80
10460;BME280;54412;51.206;6.888;2022-12-16T03:03:08;100371.06;;;-2.92;63.69
10460;BME280;54412;51.206;6.888;2022-12-16T03:05:47;100369.34;;;-3.06;63.77
10460;BME280;54412;51.206;6.888;2022-12-16T03:08:36;100371.06;;;-3.10;64.22
10460;BME280;54412;51.206;6.888;2022-12-16T03:11:05;100377.94;;;-3.06;63.65
10460;BME280;54412;51.206;6.888;2022-12-16T03:13:42;100368.47;;;-2.63;62.61
10460;BME280;54412;51.206;6.888;2022-12-16T03:16:13;100369.34;;;-2.97;63.42
10460;BME280;54412;51.206;6.888;2022-12-16T03:18:43;100366.75;;;-3.25;64.00
10460;BME280;54412;51.206;6.888;2022-12-16T03:21:14;100372.75;;;-3.35;65.04
10460;BME280;54412;51.206;6.888;2022-12-16T03:23:50;100367.59;;;-3.30;65.03
10460;BME280;54412;51.206;6.888;2022-12-16T03:26:40;100372.69;;;-3.54;65.71
10460;BME280;54412;51.206;6.888;2022-12-16T03:32:33;100371.94;;;-3.00;64.79
10460;BME280;54412;51.206;6.888;2022-12-16T03:35:13;100378.78;;;-3.21;64.45
10460;BME280;54412;51.206;6.888;2022-12-16T03:37:43;100377.06;;;-2.91;63.88
10460;BME280;54412;51.206;6.888;2022-12-16T03:40:12;100377.06;;;-3.25;64.67
10460;BME280;54412;51.206;6.888;2022-12-16T03:42:39;100381.38;;;-3.11;64.57
10460;BME280;54412;51.206;6.888;2022-12-16T03:45:12;100381.38;;;-3.08;64.27
10460;BME280;54412;51.206;6.888;2022-12-16T03:47:41;100387.41;;;-2.96;63.54
10460;BME280;54412;51.206;6.888;2022-12-16T03:50:07;100390.84;;;-3.04;63.93
10460;BME280;54412;51.206;6.888;2022-12-16T03:52:33;100396.00;;;-3.10;64.04
10460;BME280;54412;51.206;6.888;2022-12-16T03:54:59;100383.94;;;-3.05;63.60
10460;BME280;54412;51.206;6.888;2022-12-16T03:57:26;100385.69;;;-3.12;64.18
10460;BME280;54412;51.206;6.888;2022-12-16T03:59:51;100389.13;;;-3.08;63.67
10460;BME280;54412;51.206;6.888;2022-12-16T04:02:17;100389.97;;;-3.02;63.88
10460;BME280;54412;51.206;6.888;2022-12-16T04:04:43;100391.66;;;-3.27;64.01
10460;BME280;54412;51.206;6.888;2022-12-16T04:07:08;100383.88;;;-3.51;64.84
10460;BME280;54412;51.206;6.888;2022-12-16T04:09:47;100389.91;;;-3.53;65.12
10460;BME280;54412;51.206;6.888;2022-12-16T04:12:13;100392.47;;;-3.52;65.48
10460;BME280;54412;51.206;6.888;2022-12-16T04:14:58;100392.50;;;-3.38;65.42
10460;BME280;54412;51.206;6.888;2022-12-16T04:17:43;100395.16;;;-3.08;64.85
10460;BME280;54412;51.206;6.888;2022-12-16T04:20:41;100394.28;;;-3.10;63.93
10460;BME280;54412;51.206;6.888;2022-12-16T04:23:28;100390.78;;;-3.38;65.08
10460;BME280;54412;51.206;6.888;2022-12-16T04:26:13;100383.97;;;-3.21;64.47
10460;BME280;54412;51.206;6.888;2022-12-16T04:28:39;100390.88;;;-2.88;64.05
10460;BME280;54412;51.206;6.888;2022-12-16T04:31:05;100405.47;;;-2.82;63.57
10460;BME280;54412;51.206;6.888;2022-12-16T04:33:31;100397.72;;;-2.96;64.05
10460;BME280;54412;51.206;6.888;2022-12-16T04:36:16;100412.28;;;-3.25;64.18
10460;BME280;54412;51.206;6.888;2022-12-16T04:39:00;100409.75;;;-3.16;63.68
10460;BME280;54412;51.206;6.888;2022-12-16T04:41:43;100419.19;;;-3.20;63.46
10460;BME280;54412;51.206;6.888;2022-12-16T04:44:28;100417.44;;;-3.24;63.35
10460;BME280;54412;51.206;6.888;2022-12-16T04:47:12;100426.88;;;-3.42;63.86
10460;BME280;54412;51.206;6.888;2022-12-16T04:49:56;100426.97;;;-2.73;62.82
10460;BME280;54412;51.206;6.888;2022-12-16T04:52:40;100426.09;;;-2.94;63.33
10460;BME280;54412;51.206;6.888;2022-12-16T04:55:24;100433.78;;;-3.31;64.17
10460;BME280;54412;51.206;6.888;2022-12-16T04:58:08;100426.91;;;-3.30;64.53
10460;BME280;54412;51.206;6.888;2022-12-16T05:00:52;100432.94;;;-3.25;64.65
10460;BME280;54412;51.206;6.888;2022-12-16T05:03:36;100439.00;;;-2.97;64.33
10460;BME280;54412;51.206;6.888;2022-12-16T05:06:21;100437.25;;;-3.12;63.49
10460;BME280;54412;51.206;6.888;2022-12-16T05:09:06;100435.47;;;-3.42;65.05
10460;BME280;54412;51.206;6.888;2022-12-16T05:11:51;100428.63;;;-3.32;64.32
10460;BME280;54412;51.206;6.888;2022-12-16T05:14:36;100440.56;;;-3.60;64.80
10460;BME280;54412;51.206;6.888;2022-12-16T05:17:20;100441.44;;;-3.56;64.72
10460;BME280;54412;51.206;6.888;2022-12-16T05:20:06;100447.47;;;-3.45;64.45
10460;BME280;54412;51.206;6.888;2022-12-16T05:22:50;100448.38;;;-3.34;63.72
10460;BME280;54412;51.206;6.888;2022-12-16T05:25:35;100445.78;;;-3.42;64.27
10460;BME280;54412;51.206;6.888;2022-12-16T05:28:19;100448.44;;;-3.21;63.79
10460;BME280;54412;51.206;6.888;2022-12-16T05:31:03;100451.84;;;-3.26;63.65
10460;BME280;54412;51.206;6.888;2022-12-16T05:33:48;100463.00;;;-3.30;63.22
10460;BME280;54412;51.206;6.888;2022-12-16T05:36:32;100465.63;;;-3.18;63.66
10460;BME280;54412;51.206;6.888;2022-12-16T05:39:15;100473.34;;;-3.21;63.07
10460;BME280;54412;51.206;6.888;2022-12-16T05:42:00;100483.59;;;-3.42;62.94
10460;BME280;54412;51.206;6.888;2022-12-16T05:44:44;100487.84;;;-3.55;63.41
10460;BME280;54412;51.206;6.888;2022-12-16T05:47:28;100485.31;;;-3.40;63.16
10460;BME280;54412;51.206;6.888;2022-12-16T05:50:12;100495.66;;;-3.31;63.70
10460;BME280;54412;51.206;6.888;2022-12-16T05:52:57;100499.91;;;-3.43;63.52
10460;BME280;54412;51.206;6.888;2022-12-16T05:55:42;100506.69;;;-3.69;63.92
10460;BME280;54412;51.206;6.888;2022-12-16T05:58:27;100493.69;;;-3.90;64.04
10460;BME280;54412;51.206;6.888;2022-12-16T06:01:13;100498.91;;;-3.74;63.96
10460;BME280;54412;51.206;6.888;2022-12-16T06:03:57;100505.75;;;-3.76;63.28
10460;BME280;54412;51.206;6.888;2022-12-16T06:06:42;100511.75;;;-3.81;63.47
10460;BME280;54412;51.206;6.888;2022-12-16T06:09:26;100520.50;;;-3.52;63.66
10460;BME280;54412;51.206;6.888;2022-12-16T06:12:11;100516.16;;;-3.58;63.13
10460;BME280;54412;51.206;6.888;2022-12-16T06:14:55;100518.69;;;-3.73;63.52
10460;BME280;54412;51.206;6.888;2022-12-16T06:17:47;100521.38;;;-3.53;63.49
10460;BME280;54412;51.206;6.888;2022-12-16T06:20:33;100531.88;;;-3.09;62.57
10460;BME280;54412;51.206;6.888;2022-12-16T06:23:17;100525.81;;;-3.17;61.55
10460;BME280;54412;51.206;6.888;2022-12-16T06:26:01;100533.59;;;-2.95;61.20
10460;BME280;54412;51.206;6.888;2022-12-16T06:28:46;100540.53;;;-2.85;61.11
10460;BME280;54412;51.206;6.888;2022-12-16T06:31:30;100538.66;;;-3.31;62.36
10460;BME280;54412;51.206;6.888;2022-12-16T06:34:14;100539.47;;;-3.40;62.68
10460;BME280;54412;51.206;6.888;2022-12-16T06:36:58;100535.06;;;-3.59;63.48
10460;BME280;54412;51.206;6.888;2022-12-16T06:39:42;100535.94;;;-3.57;63.43
10460;BME280;54412;51.206;6.888;2022-12-16T06:42:26;100544.41;;;-3.83;64.67
10460;BME280;54412;51.206;6.888;2022-12-16T06:45:12;100544.66;;;-3.37;65.78
10460;BME280;54412;51.206;6.888;2022-12-16T06:47:56;100535.94;;;-3.58;64.89
10460;BME280;54412;51.206;6.888;2022-12-16T06:50:40;100545.28;;;-3.80;65.42
10460;BME280;54412;51.206;6.888;2022-12-16T06:53:24;100553.94;;;-3.61;63.94
10460;BME280;54412;51.206;6.888;2022-12-16T06:56:08;100564.19;;;-3.78;64.32
10460;BME280;54412;51.206;6.888;2022-12-16T06:58:52;100566.06;;;-3.45;64.08
10460;BME280;54412;51.206;6.888;2022-12-16T07:01:37;100575.44;;;-3.62;64.27
10460;BME280;54412;51.206;6.888;2022-12-16T07:04:21;100576.22;;;-3.75;64.39
10460;BME280;54412;51.206;6.888;2022-12-16T07:07:05;100570.28;;;-3.64;63.54
10460;BME280;54412;51.206;6.888;2022-12-16T07:09:49;100573.63;;;-3.75;63.40
10460;BME280;54412;51.206;6.888;2022-12-16T07:12:33;100579.59;;;-3.84;64.11
10460;BME280;54412;51.206;6.888;2022-12-16T07:15:17;100594.13;;;-3.93;64.18
10460;BME280;54412;51.206;6.888;2022-12-16T07:18:02;100595.31;;;-3.46;63.32
10460;BME280;54412;51.206;6.888;2022-12-16T07:20:46;100601.06;;;-3.83;64.20
10460;BME280;54412;51.206;6.888;2022-12-16T07:23:30;100611.38;;;-3.83;64.28
10460;BME280;54412;51.206;6.888;2022-12-16T07:26:14;100615.59;;;-3.91;64.63
10460;BME280;54412;51.206;6.888;2022-12-16T07:28:58;100608.78;;;-3.85;64.55
10460;BME280;54412;51.206;6.888;2022-12-16T07:31:42;100621.72;;;-3.76;64.34
10460;BME280;54412;51.206;6.888;2022-12-16T07:34:26;100634.66;;;-3.70;64.48
10460;BME280;54412;51.206;6.888;2022-12-16T07:37:10;100640.63;;;-3.77;64.75
10460;BME280;54412;51.206;6.888;2022-12-16T07:39:54;100653.50;;;-3.80;64.53
10460;BME280;54412;51.206;6.888;2022-12-16T07:42:41;100652.78;;;-3.61;63.45
10460;BME280;54412;51.206;6.888;2022-12-16T07:45:25;100648.44;;;-3.65;64.31
10460;BME280;54412;51.206;6.888;2022-12-16T07:48:10;100659.53;;;-3.78;64.97
10460;BME280;54412;51.206;6.888;2022-12-16T07:50:54;100651.00;;;-3.71;64.49
10460;BME280;54412;51.206;6.888;2022-12-16T07:53:38;100659.59;;;-3.69;64.05
10460;BME280;54412;51.206;6.888;2022-12-16T07:56:22;100654.53;;;-3.55;63.90
10460;BME280;54412;51.206;6.888;2022-12-16T07:59:06;100657.09;;;-3.58;64.22
10460;BME280;54412;51.206;6.888;2022-12-16T08:01:50;100663.09;;;-3.61;64.41
10460;BME280;54412;51.206;6.888;2022-12-16T08:04:34;100665.81;;;-3.38;63.78
10460;BME280;54412;51.206;6.888;2022-12-16T08:07:19;100673.59;;;-3.34;64.09
10460;BME280;54412;51.206;6.888;2022-12-16T08:10:03;100682.16;;;-3.38;64.18
10460;BME280;54412;51.206;6.888;2022-12-16T08:12:48;100684.78;;;-3.27;64.47
10460;BME280;54412;51.206;6.888;2022-12-16T08:15:32;100683.84;;;-3.40;64.86
10460;BME280;54412;51.206;6.888;2022-12-16T08:18:16;100689.13;;;-3.22;64.96
10460;BME280;54412;51.206;6.888;2022-12-16T08:21:00;100695.91;;;-3.40;65.26
10460;BME280;54412;51.206;6.888;2022-12-16T08:23:44;100688.28;;;-3.21;64.66
10460;BME280;54412;51.206;6.888;2022-12-16T08:26:28;100696.81;;;-3.31;64.77
10460;BME280;54412;51.206;6.888;2022-12-16T08:29:12;100698.59;;;-3.22;65.18
10460;BME280;54412;51.206;6.888;2022-12-16T08:31:57;100694.41;;;-3.05;65.00
10460;BME280;54412;51.206;6.888;2022-12-16T08:34:41;100699.50;;;-3.14;64.70
10460;BME280;54412;51.206;6.888;2022-12-16T08:37:25;100699.44;;;-3.23;64.80
10460;BME280;54412;51.206;6.888;2022-12-16T08:40:09;100700.31;;;-3.21;65.11
10460;BME280;54412;51.206;6.888;2022-12-16T08:42:57;100706.41;;;-3.05;64.46
10460;BME280;54412;51.206;6.888;2022-12-16T08:45:42;100713.34;;;-3.00;64.66
10460;BME280;54412;51.206;6.888;2022-12-16T08:48:27;100718.66;;;-2.76;64.40
10460;BME280;54412;51.206;6.888;2022-12-16T08:51:11;100723.97;;;-2.41;63.50
10460;BME280;54412;51.206;6.888;2022-12-16T08:53:55;100727.47;;;-2.17;62.38
10460;BME280;54412;51.206;6.888;2022-12-16T08:56:40;100730.00;;;-2.30;62.97
10460;BME280;54412;51.206;6.888;2022-12-16T08:59:25;100726.63;;;-2.08;62.28
10460;BME280;54412;51.206;6.888;2022-12-16T09:02:10;100732.72;;;-1.65;61.38
10460;BME280;54412;51.206;6.888;2022-12-16T09:04:54;100746.53;;;-1.63;60.96
10460;BME280;54412;51.206;6.888;2022-12-16T09:07:39;100744.78;;;-1.69;60.98
10460;BME280;54412;51.206;6.888;2022-12-16T09:10:23;100745.69;;;-1.53;60.91
10460;BME280;54412;51.206;6.888;2022-12-16T09:13:14;100744.81;;;-1.10;60.38
10460;BME280;54412;51.206;6.888;2022-12-16T09:16:00;100749.94;;;-0.86;59.82
10460;BME280;54412;51.206;6.888;2022-12-16T09:18:44;100754.28;;;-0.92;59.71
10460;BME280;54412;51.206;6.888;2022-12-16T09:21:29;100753.31;;;-0.55;59.40
10460;BME280;54412;51.206;6.888;2022-12-16T09:24:13;100758.50;;;-0.60;59.49
10460;BME280;54412;51.206;6.888;2022-12-16T09:26:58;100766.38;;;-1.41;61.63
10460;BME280;54412;51.206;6.888;2022-12-16T09:29:42;100766.25;;;-0.48;60.14
10460;BME280;54412;51.206;6.888;2022-12-16T09:32:26;100757.69;;;-0.71;60.28
10460;BME280;54412;51.206;6.888;2022-12-16T09:35:11;100772.41;;;-1.18;61.16
10460;BME280;54412;51.206;6.888;2022-12-16T09:37:55;100774.13;;;-1.28;61.60
10460;BME280;54412;51.206;6.888;2022-12-16T09:40:41;100769.78;;;-0.76;61.67
10460;BME280;54412;51.206;6.888;2022-12-16T09:47:10;100765.94;;;0.17;59.86
10460;BME280;54412;51.206;6.888;2022-12-16T09:49:58;100774.34;;;0.55;58.29
10460;BME280;54412;51.206;6.888;2022-12-16T09:52:59;100784.72;;;0.51;58.56
10460;BME280;54412;51.206;6.888;2022-12-16T09:55:45;100790.69;;;0.63;57.26
10460;BME280;54412;51.206;6.888;2022-12-16T09:58:40;100784.31;;;1.03;56.51
10460;BME280;54412;51.206;6.888;2022-12-16T10:01:34;100788.03;;;0.75;56.48
10460;BME280;54412;51.206;6.888;2022-12-16T10:04:20;100787.28;;;0.57;56.93
10460;BME280;54412;51.206;6.888;2022-12-16T10:07:20;100780.97;;;0.91;56.60
10460;BME280;54412;51.206;6.888;2022-12-16T10:13:32;100794.16;;;0.68;56.67
10460;BME280;54412;51.206;6.888;2022-12-16T10:16:46;100794.88;;;0.84;56.42
10460;BME280;54412;51.206;6.888;2022-12-16T10:22:59;100791.84;;;1.32;55.44
10460;BME280;54412;51.206;6.888;2022-12-16T10:25:59;100793.53;;;1.33;55.24
10460;BME280;54412;51.206;6.888;2022-12-16T10:28:51;100798.47;;;1.59;55.75
10460;BME280;54412;51.206;6.888;2022-12-16T10:31:38;100807.19;;;1.55;55.06
10460;BME280;54412;51.206;6.888;2022-12-16T10:34:29;100807.16;;;1.59;55.22
10460;BME280;54412;51.206;6.888;2022-12-16T10:37:36;100804.38;;;1.74;55.09
10460;BME280;54412;51.206;6.888;2022-12-16T10:40:30;100807.28;;;1.44;55.60
10460;BME280;54412;51.206;6.888;2022-12-16T10:43:47;100817.28;;;1.80;55.58
10460;BME280;54412;51.206;6.888;2022-12-16T10:46:34;100809.75;;;2.28;54.65
10460;BME280;54412;51.206;6.888;2022-12-16T10:49:19;100814.59;;;1.88;55.13
10460;BME280;54412;51.206;6.888;2022-12-16T10:52:05;100811.44;;;2.33;54.18
10460;BME280;54412;51.206;6.888;2022-12-16T10:55:21;100810.28;;;2.51;54.83
10460;BME280;54412;51.206;6.888;2022-12-16T11:01:27;100802.44;;;2.55;54.65
10460;BME280;54412;51.206;6.888;2022-12-16T11:04:36;100804.16;;;2.55;54.03
10460;BME280;54412;51.206;6.888;2022-12-16T11:07:51;100809.22;;;2.65;53.88
10460;BME280;54412;51.206;6.888;2022-12-16T11:10:39;100809.81;;;2.81;54.39
10460;BME280;54412;51.206;6.888;2022-12-16T11:13:27;100810.31;;;3.05;53.71
10460;BME280;54412;51.206;6.888;2022-12-16T11:16:24;100816.66;;;2.89;53.83
10460;BME280;54412;51.206;6.888;2022-12-16T11:19:26;100813.19;;;2.89;54.35
10460;BME280;54412;51.206;6.888;2022-12-16T11:22:20;100819.34;;;3.35;53.62
10460;BME280;54412;51.206;6.888;2022-12-16T11:28:12;100816.34;;;3.09;53.08
10460;BME280;54412;51.206;6.888;2022-12-16T11:31:05;100819.34;;;3.81;52.27
10460;BME280;54412;51.206;6.888;2022-12-16T11:33:53;100817.94;;;3.65;52.74
10460;BME280;54412;51.206;6.888;2022-12-16T11:36:40;100819.06;;;3.50;52.82
10460;BME280;54412;51.206;6.888;2022-12-16T11:39:28;100820.91;;;3.45;52.88
10460;BME280;54412;51.206;6.888;2022-12-16T11:42:34;100822.91;;;3.77;53.11
10460;BME280;54412;51.206;6.888;2022-12-16T11:45:20;100823.81;;;3.74;53.17
10460;BME280;54412;51.206;6.888;2022-12-16T11:48:49;100819.31;;;3.82;52.47
10460;BME280;54412;51.206;6.888;2022-12-16T11:51:29;100826.38;;;3.77;53.00
10460;BME280;54412;51.206;6.888;2022-12-16T11:54:27;100828.41;;;3.63;52.79
10460;BME280;54412;51.206;6.888;2022-12-16T11:57:36;100823.03;;;4.12;52.54
10460;BME280;54412;51.206;6.888;2022-12-16T12:00:22;100814.97;;;4.24;51.66
10460;BME280;54412;51.206;6.888;2022-12-16T12:03:18;100817.31;;;4.36;51.73
10460;BME280;54412;51.206;6.888;2022-12-16T12:06:31;100820.03;;;4.32;51.72
10460;BME280;54412;51.206;6.888;2022-12-16T12:09:22;100818.03;;;4.43;51.57
10460;BME280;54412;51.206;6.888;2022-12-16T12:12:33;100818.53;;;4.60;51.19
10460;BME280;54412;51.206;6.888;2022-12-16T12:18:50;100829.16;;;4.52;51.69
10460;BME280;54412;51.206;6.888;2022-12-16T12:22:03;100821.50;;;4.43;51.81
10460;BME280;54412;51.206;6.888;2022-12-16T12:26:04;100821.09;;;4.61;51.81
10460;BME280;54412;51.206;6.888;2022-12-16T12:31:17;100831.84;;;4.87;51.71
10460;BME280;54412;51.206;6.888;2022-12-16T12:34:34;100836.41;;;5.13;51.61
10460;BME280;54412;51.206;6.888;2022-12-16T12:37:31;100823.25;;;5.83;49.70
10460;BME280;54412;51.206;6.888;2022-12-16T12:40:54;100830.16;;;5.86;49.22
10460;BME280;54412;51.206;6.888;2022-12-16T12:44:06;100832.47;;;5.96;48.78
10460;BME280;54412;51.206;6.888;2022-12-16T12:47:01;100838.88;;;6.17;48.23
10460;BME280;54412;51.206;6.888;2022-12-16T12:50:02;100838.28;;;6.07;48.00
10460;BME280;54412;51.206;6.888;2022-12-16T12:53:13;100842.47;;;6.44;46.81
10460;BME280;54412;51.206;6.888;2022-12-16T12:56:49;100840.81;;;6.40;46.46
10460;BME280;54412;51.206;6.888;2022-12-16T12:59:58;100850.38;;;6.97;45.43
10460;BME280;54412;51.206;6.888;2022-12-16T13:03:06;100850.59;;;6.62;45.81
10460;BME280;54412;51.206;6.888;2022-12-16T13:05:58;100849.03;;;6.57;46.12
10460;BME280;54412;51.206;6.888;2022-12-16T13:08:53;100852.22;;;6.66;45.84
10460;BME280;54412;51.206;6.888;2022-12-16T13:18:23;100855.91;;;7.16;45.02
10460;BME280;54412;51.206;6.888;2022-12-16T13:24:48;100856.00;;;6.58;46.02
10460;BME280;54412;51.206;6.888;2022-12-16T13:27:55;100854.41;;;6.81;45.71
10460;BME280;54412;51.206;6.888;2022-12-16T13:30:56;100863.88;;;6.85;46.23
10460;BME280;54412;51.206;6.888;2022-12-16T13:33:50;100866.91;;;6.43;47.79
10460;BME280;54412;51.206;6.888;2022-12-16T13:36:35;100860.47;;;6.25;47.88
10460;BME280;54412;51.206;6.888;2022-12-16T13:39:29;100863.19;;;4.87;51.70
10460;BME280;54412;51.206;6.888;2022-12-16T13:48:48;100861.75;;;4.74;53.46
10460;BME280;54412;51.206;6.888;2022-12-16T13:54:40;100878.00;;;4.06;56.46
10460;BME280;54412;51.206;6.888;2022-12-16T13:57:30;100877.97;;;3.63;58.07
10460;BME280;54412;51.206;6.888;2022-12-16T14:00:22;100884.91;;;3.12;59.36
10460;BME280;54412;51.206;6.888;2022-12-16T14:03:37;100891.66;;;3.26;60.12
10460;BME280;54412;51.206;6.888;2022-12-16T14:06:25;100895.09;;;2.70;61.36
10460;BME280;54412;51.206;6.888;2022-12-16T14:09:40;100910.44;;;2.24;63.16
10460;BME280;54412;51.206;6.888;2022-12-16T14:13:03;100910.59;;;2.12;64.08
10460;BME280;54412;51.206;6.888;2022-12-16T14:16:06;100915.88;;;2.04;64.14
10460;BME280;54412;51.206;6.888;2022-12-16T14:19:13;100923.06;;;1.78;65.14
10460;BME280;54412;51.206;6.888;2022-12-16T14:25:28;100922.81;;;2.04;65.09
10460;BME280;54412;51.206;6.888;2022-12-16T14:28:34;100924.16;;;1.53;66.76
10460;BME280;54412;51.206;6.888;2022-12-16T14:31:36;100931.88;;;1.62;66.32
10460;BME280;54412;51.206;6.888;2022-12-16T14:34:26;100939.69;;;1.61;66.77
10460;BME280;54412;51.206;6.888;2022-12-16T14:40:30;100930.19;;;1.57;66.74
10460;BME280;54412;51.206;6.888;2022-12-16T14:43:22;100937.84;;;1.73;66.98
10460;BME280;54412;51.206;6.888;2022-12-16T14:49:27;100935.47;;;1.48;67.96
10460;BME280;54412;51.206;6.888;2022-12-16T14:52:30;100957.25;;;1.33;67.87
10460;BME280;54412;51.206;6.888;2022-12-16T14:55:30;100959.53;;;1.72;66.94
10460;BME280;54412;51.206;6.888;2022-12-16T14:58:20;100969.50;;;1.18;69.23
10460;BME280;54412;51.206;6.888;2022-12-16T15:01:15;100971.19;;;1.25;68.69
10460;BME280;54412;51.206;6.888;2022-12-16T15:04:16;100979.50;;;1.69;68.04
10460;BME280;54412;51.206;6.888;2022-12-16T15:07:05;100976.25;;;1.43;68.85
10460;BME280;54412;51.206;6.888;2022-12-16T15:09:54;100982.47;;;1.18;69.69
10460;BME280;54412;51.206;6.888;2022-12-16T15:12:44;100988.59;;;1.09;69.81
10460;BME280;54412;51.206;6.888;2022-12-16T15:15:36;100985.91;;;1.21;69.43
10460;BME280;54412;51.206;6.888;2022-12-16T15:18:30;100996.78;;;1.73;68.74
10460;BME280;54412;51.206;6.888;2022-12-16T15:21:15;100997.81;;;1.58;68.89
10460;BME280;54412;51.206;6.888;2022-12-16T15:24:00;100999.88;;;2.12;69.38
10460;BME280;54412;51.206;6.888;2022-12-16T15:26:44;101003.78;;;1.66;68.29
10460;BME280;54412;51.206;6.888;2022-12-16T15:29:40;101016.56;;;1.92;68.22
10460;BME280;54412;51.206;6.888;2022-12-16T15:35:34;101016.47;;;2.04;67.58